YMAY Airport Information

Runway Information
Runway 07 Length 6234 ft width 98 ft
Elevation 539 ft Threshold 0 ft Heading 81
Runway 25 Length 6234 ft Width 98 ft
Elevation 531 ft Threshold 0 ft Heading 261
Airport Frequencies
Type ATIS Name ATIS Frequency 115.6 MHZ
Type CTAF Name CTAF Frequency 124.2 MHZ
Type FSS Name MELBOURNE Frequency 125.2 MHZ
Type TWR Name TWR Frequency 124.2 MHZ
Airport Navaids
Type VOR-DME Name Albury Frequency 115600 KHZ
Type NDB Name Albury Frequency 236 KHZ
Airport Weather Information & NOTAM
ADDS - METARS form results

(1023 UTC 17 November 2019)
Data provider http://aviationweather.gov/metar/data/
 
METAR text: YMAY 171000Z AUTO 28012KT 9999 // NCD 18/03 Q1017
Conditions at: YMAY (ALBURY AIRPORT , AU) observed 1000 UTC 17 November 2019
Temperature: 18.0°C (64°F)
Dewpoint: 3.0°C (37°F) [RH = 37%]
Pressure (altimeter): 30.03 inches Hg (1017.0 mb)
Winds: from the W (280 degrees) at 14 MPH (12 knots; 6.2 m/s)
Visibility: 6 or more miles (10+ km)
Ceiling: at least 12,000 feet AGL
Clouds: sky clear below 12,000 feet AGL
Weather: no significant weather observed at this time